Time;durP1;ratioP1;P1;durP2;ratioP2;P2;SDS_P1;SDS_P2;PMS_P1;PMS_P2;Temp;Humidity;BMP_temperature;BMP_pressure;BME280_temperature;BME280_humidity;BME280_pressure;Samples;Min_cycle;Max_cycle;Signal;HPM_P1;HPM_P2
2022/01/06 00:01:52;;;;;;;9.38;3.42;;;5.30;99.90;;;;;;5094402;28;20024;-49
2022/01/06 00:04:17;;;;;;;8.93;4.00;;;5.30;99.90;;;;;;5094492;28;20031;-49
2022/01/06 00:06:43;;;;;;;9.32;3.45;;;5.30;99.90;;;;;;5094058;28;20470;-52
2022/01/06 00:09:11;;;;;;;8.23;3.58;;;5.30;99.90;;;;;;5094305;28;20395;-50
2022/01/06 00:11:36;;;;;;;6.90;3.08;;;5.30;99.90;;;;;;5094153;28;20016;-51
2022/01/06 00:14:23;;;;;;;4.78;2.95;;;5.20;99.90;;;;;;5094324;28;20023;-47
2022/01/06 00:24:49;;;;;;;5.55;2.15;;;5.40;99.90;;;;;;5094092;28;20063;-50
2022/01/06 00:27:15;;;;;;;6.82;3.15;;;5.40;99.90;;;;;;5094213;28;20441;-52
2022/01/06 00:29:41;;;;;;;6.80;2.70;;;5.50;99.90;;;;;;5093492;28;20051;-53
2022/01/06 00:32:07;;;;;;;8.85;3.10;;;5.50;99.90;;;;;;5093883;28;20138;-53
2022/01/06 00:34:33;;;;;;;5.40;2.60;;;5.50;99.90;;;;;;5093997;28;20118;-49
2022/01/06 00:36:58;;;;;;;10.13;3.42;;;5.50;99.90;;;;;;5094052;28;20476;-49
2022/01/06 00:39:27;;;;;;;10.45;2.70;;;5.60;99.90;;;;;;5093296;28;20484;-51
2022/01/06 00:41:56;;;;;;;5.10;2.50;;;5.50;99.90;;;;;;5093795;28;20086;-50
2022/01/06 00:44:22;;;;;;;6.68;2.80;;;5.50;99.90;;;;;;5093611;28;20058;-52
2022/01/06 00:46:47;;;;;;;4.82;2.60;;;5.50;99.90;;;;;;5093686;28;20016;-52
2022/01/06 00:49:13;;;;;;;8.32;2.58;;;5.50;99.90;;;;;;5088995;22;20041;-48
2022/01/06 00:51:38;;;;;;;2.33;2.13;;;5.50;99.90;;;;;;5035150;28;20028;-48
2022/01/06 00:54:04;;;;;;;4.07;2.28;;;5.50;99.90;;;;;;5053007;28;20365;-48
2022/01/06 00:56:29;;;;;;;11.63;3.42;;;5.40;99.90;;;;;;5053556;28;20029;-49
2022/01/06 00:58:55;;;;;;;3.47;2.17;;;5.50;99.90;;;;;;5053230;28;20032;-49
2022/01/06 01:01:21;;;;;;;6.75;3.35;;;5.60;99.90;;;;;;5035675;28;20021;-46
2022/01/06 01:03:46;;;;;;;3.60;2.50;;;5.50;99.90;;;;;;5053182;28;20029;-48
2022/01/06 01:06:13;;;;;;;5.88;2.58;;;5.40;99.90;;;;;;5052524;28;20073;-46
2022/01/06 01:08:38;;;;;;;2.78;2.42;;;5.50;99.90;;;;;;5052835;28;20024;-48
2022/01/06 01:11:04;;;;;;;4.43;2.70;;;5.40;99.90;;;;;;5052536;28;20489;-48
2022/01/06 01:13:32;;;;;;;8.00;2.90;;;5.40;99.90;;;;;;5052051;28;20029;-50
2022/01/06 01:16:08;;;;;;;5.95;2.33;;;5.40;99.90;;;;;;5052804;28;20079;-48
2022/01/06 01:18:34;;;;;;;8.32;2.70;;;5.40;99.90;;;;;;5052654;28;20083;-48
2022/01/06 01:21:00;;;;;;;4.05;2.78;;;5.40;99.90;;;;;;5052216;28;20029;-46
2022/01/06 01:23:25;;;;;;;3.42;2.30;;;5.40;99.90;;;;;;5052603;28;20032;-48
2022/01/06 01:25:51;;;;;;;4.90;2.38;;;5.30;99.90;;;;;;5052492;28;20081;-49
2022/01/06 01:28:17;;;;;;;4.05;3.20;;;5.30;99.90;;;;;;5052384;28;20392;-51
2022/01/06 01:31:02;;;;;;;11.45;2.70;;;5.20;99.90;;;;;;5052295;28;20048;-49
2022/01/06 01:33:30;;;;;;;4.32;2.47;;;5.10;99.90;;;;;;5052119;28;20361;-47
2022/01/06 01:35:56;;;;;;;8.38;2.28;;;5.10;99.90;;;;;;5052445;28;20441;-48
2022/01/06 01:38:21;;;;;;;5.43;2.40;;;5.10;99.90;;;;;;5052359;28;20075;-49
2022/01/06 01:40:47;;;;;;;5.30;2.80;;;5.10;99.90;;;;;;5051952;28;20037;-49
2022/01/06 01:43:12;;;;;;;5.90;2.40;;;5.10;99.90;;;;;;5034243;28;20096;-47
2022/01/06 01:45:45;;;;;;;2.85;2.08;;;5.10;99.90;;;;;;5052319;28;20028;-48
2022/01/06 01:48:18;;;;;;;7.53;2.10;;;5.00;99.90;;;;;;5052209;28;20040;-47
2022/01/06 01:50:44;;;;;;;8.20;2.58;;;5.00;99.90;;;;;;5051826;28;20072;-49
2022/01/06 01:53:10;;;;;;;6.00;2.20;;;4.90;99.90;;;;;;5051978;28;20493;-47
2022/01/06 01:55:36;;;;;;;3.70;2.28;;;4.90;99.90;;;;;;5051905;28;20123;-49
2022/01/06 01:58:03;;;;;;;2.47;1.92;;;4.90;99.90;;;;;;5052022;28;20021;-52
2022/01/06 02:00:30;;;;;;;3.83;2.25;;;4.90;99.90;;;;;;5033826;28;20032;-48
2022/01/06 02:02:57;;;;;;;7.72;2.67;;;4.80;99.90;;;;;;5051825;28;20047;-48
2022/01/06 02:05:26;;;;;;;3.35;2.40;;;4.80;99.90;;;;;;5051994;28;20050;-52
2022/01/06 02:07:54;;;;;;;4.43;2.00;;;4.70;99.90;;;;;;5033919;28;20428;-50
2022/01/06 02:10:54;;;;;;;4.55;2.20;;;4.80;99.90;;;;;;5051468;28;20036;-49
2022/01/06 02:13:23;;;;;;;4.15;1.88;;;4.70;99.90;;;;;;5049683;28;20025;-46
2022/01/06 02:15:49;;;;;;;7.85;2.13;;;4.80;99.90;;;;;;5052970;28;20505;-47
2022/01/06 02:18:14;;;;;;;4.07;2.70;;;4.70;99.90;;;;;;5051600;28;20353;-46
2022/01/06 02:20:40;;;;;;;2.75;1.92;;;4.60;99.90;;;;;;5051531;28;20017;-47
2022/01/06 02:23:05;;;;;;;6.75;2.22;;;4.60;99.90;;;;;;5051700;28;20049;-47
2022/01/06 02:25:32;;;;;;;5.57;2.50;;;4.60;99.90;;;;;;5033541;28;20021;-50
2022/01/06 02:28:03;;;;;;;11.40;2.45;;;4.60;99.90;;;;;;5051710;28;20036;-47
2022/01/06 02:30:32;;;;;;;4.93;2.17;;;4.60;99.90;;;;;;5051209;28;20024;-49
2022/01/06 02:33:00;;;;;;;1.88;1.70;;;4.60;99.90;;;;;;5051444;28;20024;-47
2022/01/06 02:35:25;;;;;;;3.85;2.05;;;4.60;99.90;;;;;;5051655;28;20112;-51
2022/01/06 02:37:51;;;;;;;9.40;2.00;;;4.50;99.90;;;;;;5051574;28;20068;-47
2022/01/06 02:40:21;;;;;;;4.55;1.92;;;4.40;99.90;;;;;;5051285;28;20438;-48
2022/01/06 02:42:50;;;;;;;4.55;2.15;;;4.40;99.90;;;;;;5051208;28;20036;-48
2022/01/06 02:45:17;;;;;;;4.15;2.03;;;4.40;99.90;;;;;;5051357;28;20078;-47
2022/01/06 02:47:44;;;;;;;3.58;2.22;;;4.40;99.90;;;;;;5055042;28;20025;-47
2022/01/06 02:50:12;;;;;;;3.17;2.03;;;4.40;99.90;;;;;;5055376;28;20036;-48
2022/01/06 02:52:37;;;;;;;6.47;2.50;;;4.40;99.90;;;;;;5037503;28;20021;-47
2022/01/06 02:55:05;;;;;;;5.88;2.35;;;4.40;99.90;;;;;;5055616;28;20021;-47
2022/01/06 02:57:30;;;;;;;4.20;2.53;;;4.40;99.90;;;;;;5037615;28;20392;-47
2022/01/06 02:59:56;;;;;;;6.85;1.73;;;4.40;99.90;;;;;;5055138;28;20039;-47
2022/01/06 03:02:21;;;;;;;6.63;2.38;;;4.50;99.90;;;;;;5055406;28;20029;-49
2022/01/06 03:04:47;;;;;;;3.55;2.08;;;4.40;99.90;;;;;;5055337;28;20040;-47
2022/01/06 03:07:12;;;;;;;4.45;1.98;;;4.40;99.90;;;;;;5055382;28;20096;-46
2022/01/06 03:09:40;;;;;;;4.85;1.92;;;4.40;99.90;;;;;;5055057;28;20028;-49
2022/01/06 03:12:19;;;;;;;5.55;1.98;;;4.40;99.90;;;;;;5054601;28;20473;-47
2022/01/06 03:14:44;;;;;;;6.97;2.30;;;4.40;99.90;;;;;;5055882;28;20079;-47
2022/01/06 03:17:10;;;;;;;7.75;2.28;;;4.40;99.90;;;;;;5056243;28;20025;-48
2022/01/06 03:19:35;;;;;;;5.85;2.08;;;4.40;99.90;;;;;;5038029;28;20047;-47
2022/01/06 03:22:01;;;;;;;5.05;2.10;;;4.50;99.90;;;;;;5055590;28;20400;-48
2022/01/06 03:24:27;;;;;;;5.00;2.10;;;4.40;99.90;;;;;;5055396;28;20025;-46
2022/01/06 03:26:52;;;;;;;12.15;2.80;;;4.50;99.90;;;;;;5055168;28;20362;-48
2022/01/06 03:29:18;;;;;;;5.38;2.38;;;4.60;99.90;;;;;;5055020;28;20024;-47
2022/01/06 03:31:43;;;;;;;3.33;1.77;;;4.60;99.90;;;;;;5037423;28;20025;-47
2022/01/06 03:34:09;;;;;;;11.38;2.20;;;4.50;99.90;;;;;;5054792;28;20024;-46
2022/01/06 03:36:35;;;;;;;9.77;2.33;;;4.60;99.90;;;;;;5036870;28;20013;-47
2022/01/06 03:39:01;;;;;;;7.20;1.70;;;4.60;99.90;;;;;;5054569;28;20036;-50
2022/01/06 03:41:27;;;;;;;8.70;2.50;;;4.50;99.90;;;;;;5054408;28;20017;-46
2022/01/06 03:43:52;;;;;;;6.70;2.13;;;4.60;99.90;;;;;;5054406;28;20538;-47
2022/01/06 03:46:18;;;;;;;5.45;2.33;;;4.50;99.90;;;;;;5054632;28;20112;-48
2022/01/06 03:48:43;;;;;;;11.70;2.25;;;4.50;99.90;;;;;;5054381;28;20523;-47
2022/01/06 03:51:09;;;;;;;9.48;2.38;;;4.50;99.90;;;;;;5054207;28;20036;-47
2022/01/06 03:53:34;;;;;;;8.85;2.88;;;4.50;99.90;;;;;;5054440;28;20029;-48
2022/01/06 03:56:00;;;;;;;6.97;2.45;;;4.40;99.90;;;;;;5055406;28;20103;-47
2022/01/06 03:58:25;;;;;;;10.07;1.98;;;4.30;99.90;;;;;;5054068;28;20056;-47
2022/01/06 04:00:51;;;;;;;5.88;2.10;;;4.20;99.90;;;;;;5036143;28;20112;-50
2022/01/06 04:03:16;;;;;;;4.43;1.75;;;4.00;99.90;;;;;;5054195;28;20055;-50
2022/01/06 04:05:42;;;;;;;10.20;2.80;;;3.90;99.90;;;;;;5054101;28;20033;-50
2022/01/06 04:08:07;;;;;;;10.98;3.42;;;3.80;99.90;;;;;;5054702;28;20023;-51
2022/01/06 04:10:33;;;;;;;8.30;2.47;;;3.80;99.90;;;;;;5035809;28;20040;-50
2022/01/06 04:12:58;;;;;;;6.38;2.10;;;3.70;99.90;;;;;;5053914;28;20070;-51
2022/01/06 04:15:26;;;;;;;12.65;1.73;;;3.60;99.90;;;;;;5054068;28;20055;-48
2022/01/06 04:17:51;;;;;;;21.30;3.08;;;3.80;99.90;;;;;;5035937;28;20455;-48
2022/01/06 04:20:17;;;;;;;10.32;3.45;;;3.80;99.90;;;;;;5053747;28;20108;-53
2022/01/06 04:22:43;;;;;;;7.40;2.42;;;3.70;99.90;;;;;;5053706;28;20397;-51
2022/01/06 04:25:10;;;;;;;7.93;2.70;;;3.60;99.90;;;;;;5035957;28;20484;-45
2022/01/06 04:27:36;;;;;;;3.88;2.17;;;3.60;99.90;;;;;;5053902;28;20111;-50
2022/01/06 04:30:05;;;;;;;10.65;3.70;;;3.50;99.90;;;;;;5053675;28;20110;-52
2022/01/06 04:32:31;;;;;;;7.85;2.47;;;3.50;99.90;;;;;;5035561;28;20032;-48
2022/01/06 04:34:58;;;;;;;10.70;2.53;;;3.50;99.90;;;;;;5053785;28;20025;-49
2022/01/06 04:37:25;;;;;;;6.32;2.15;;;3.40;99.90;;;;;;5054380;28;20075;-49
2022/01/06 04:39:50;;;;;;;7.28;2.20;;;3.30;99.90;;;;;;5053741;28;20021;-49
2022/01/06 04:42:16;;;;;;;7.53;2.30;;;3.40;99.90;;;;;;5053459;28;20075;-52
2022/01/06 04:44:41;;;;;;;12.88;2.92;;;3.40;99.90;;;;;;5035400;28;20052;-48
2022/01/06 04:47:07;;;;;;;6.18;1.92;;;3.40;99.90;;;;;;5053325;28;20021;-51
2022/01/06 04:49:32;;;;;;;4.90;2.05;;;3.40;99.90;;;;;;5052742;28;20033;-47
2022/01/06 04:51:58;;;;;;;7.30;2.10;;;3.30;99.90;;;;;;5035172;28;20029;-47
2022/01/06 04:54:23;;;;;;;11.18;4.47;;;3.40;99.90;;;;;;5053172;28;20037;-49
2022/01/06 04:56:49;;;;;;;10.38;2.85;;;3.40;99.90;;;;;;5053182;28;20083;-49
2022/01/06 04:59:14;;;;;;;9.57;2.78;;;3.40;99.90;;;;;;5052775;28;20036;-48
2022/01/06 05:01:40;;;;;;;7.65;2.38;;;3.40;99.90;;;;;;5052962;28;20029;-48
2022/01/06 05:04:06;;;;;;;11.13;3.03;;;3.40;99.90;;;;;;5052869;28;20024;-49
2022/01/06 05:06:32;;;;;;;10.82;2.25;;;3.30;99.90;;;;;;5034888;28;20028;-49
2022/01/06 05:08:57;;;;;;;14.55;2.72;;;3.30;99.90;;;;;;5052149;28;20032;-50
2022/01/06 05:11:23;;;;;;;16.08;3.28;;;3.20;99.90;;;;;;5052567;28;20052;-47
2022/01/06 05:13:49;;;;;;;13.20;3.15;;;3.20;99.90;;;;;;5052499;28;20110;-53
2022/01/06 05:16:14;;;;;;;15.52;3.13;;;3.20;99.90;;;;;;5052598;28;20407;-53
2022/01/06 05:18:40;;;;;;;11.68;2.40;;;3.20;99.90;;;;;;5052543;28;20443;-49
2022/01/06 05:21:06;;;;;;;11.98;2.50;;;3.30;99.90;;;;;;5034414;28;20553;-52
2022/01/06 05:23:32;;;;;;;15.02;3.90;;;3.40;99.90;;;;;;5052458;28;20025;-48
2022/01/06 05:25:58;;;;;;;16.95;3.17;;;3.40;99.90;;;;;;5052560;28;20025;-52
2022/01/06 05:28:24;;;;;;;11.85;2.78;;;3.40;99.90;;;;;;5052507;28;20021;-52
2022/01/06 05:30:49;;;;;;;19.48;4.28;;;3.40;99.90;;;;;;5052211;28;20028;-49
2022/01/06 05:33:15;;;;;;;22.60;3.90;;;3.50;99.90;;;;;;5052706;28;20100;-51
2022/01/06 05:35:41;;;;;;;10.35;2.85;;;3.50;99.90;;;;;;5034617;28;20096;-52
2022/01/06 05:38:07;;;;;;;10.98;3.65;;;3.50;99.90;;;;;;5052743;28;20116;-55
2022/01/06 05:40:32;;;;;;;9.63;3.42;;;3.50;99.90;;;;;;5052213;28;20025;-52
2022/01/06 05:42:58;;;;;;;11.98;3.50;;;3.40;99.90;;;;;;5034387;28;20400;-54
2022/01/06 05:45:24;;;;;;;6.18;3.20;;;3.30;99.90;;;;;;5052214;28;20033;-53
2022/01/06 05:47:51;;;;;;;18.23;4.68;;;3.20;99.90;;;;;;5052140;28;20032;-54
2022/01/06 05:50:16;;;;;;;7.75;3.20;;;3.10;99.90;;;;;;5051972;28;20033;-54
2022/01/06 05:52:42;;;;;;;12.50;3.47;;;3.10;99.90;;;;;;5052135;28;20389;-53
2022/01/06 05:55:08;;;;;;;9.35;3.30;;;3.10;99.90;;;;;;5052128;28;20183;-53
2022/01/06 05:57:34;;;;;;;10.00;2.22;;;3.10;99.90;;;;;;5052152;28;20032;-51
2022/01/06 05:59:59;;;;;;;5.78;2.22;;;3.10;99.90;;;;;;5051534;28;20485;-51
2022/01/06 06:02:25;;;;;;;9.75;3.28;;;3.10;99.90;;;;;;5051996;28;20083;-53
2022/01/06 06:04:52;;;;;;;12.52;3.08;;;3.10;99.90;;;;;;5051964;28;20033;-54
2022/01/06 06:07:19;;;;;;;8.52;3.10;;;3.20;99.90;;;;;;5052018;28;20040;-49
2022/01/06 06:09:45;;;;;;;10.65;3.55;;;3.20;99.90;;;;;;5051623;28;20017;-49
2022/01/06 06:12:11;;;;;;;9.15;4.18;;;3.30;99.90;;;;;;5051192;28;20664;-49
2022/01/06 06:14:36;;;;;;;9.18;2.58;;;3.30;99.90;;;;;;5033976;28;20079;-49
2022/01/06 06:17:02;;;;;;;9.75;2.97;;;3.30;99.90;;;;;;5051711;28;20025;-50
2022/01/06 06:19:28;;;;;;;11.63;3.83;;;3.40;99.90;;;;;;5051373;28;20081;-48
2022/01/06 06:21:53;;;;;;;12.50;3.33;;;3.40;99.90;;;;;;5051339;28;20037;-50
2022/01/06 06:24:20;;;;;;;13.85;4.25;;;3.40;99.90;;;;;;5051521;28;20335;-52
2022/01/06 06:26:45;;;;;;;12.88;3.70;;;3.30;99.90;;;;;;5051590;28;20029;-53
2022/01/06 06:29:11;;;;;;;13.80;3.45;;;3.40;99.90;;;;;;5051271;28;20418;-48
2022/01/06 06:31:36;;;;;;;6.88;2.55;;;3.40;99.90;;;;;;5051528;28;20036;-49
2022/01/06 06:34:02;;;;;;;10.07;2.60;;;3.40;99.90;;;;;;5051431;28;20027;-54
2022/01/06 06:36:28;;;;;;;10.35;2.85;;;3.40;99.90;;;;;;5033783;28;20029;-48
2022/01/06 06:38:53;;;;;;;12.90;3.05;;;3.40;99.90;;;;;;5051198;28;20025;-49
2022/01/06 06:41:19;;;;;;;10.85;2.78;;;3.40;99.90;;;;;;5051066;28;20048;-52
2022/01/06 06:43:44;;;;;;;13.65;2.92;;;3.40;99.90;;;;;;5051197;28;20032;-50
2022/01/06 06:46:10;;;;;;;8.88;3.20;;;3.40;99.90;;;;;;5051206;28;20029;-46
2022/01/06 06:48:35;;;;;;;22.13;3.05;;;3.30;99.90;;;;;;5040319;22;1058826;-52
2022/01/06 06:51:02;;;;;;;10.70;2.75;;;3.20;99.90;;;;;;5087660;28;20036;-52
2022/01/06 06:53:28;;;;;;;7.50;2.33;;;3.20;99.90;;;;;;5091700;28;20471;-50
2022/01/06 06:55:54;;;;;;;9.38;2.80;;;3.20;99.90;;;;;;5073282;28;20028;-47
2022/01/06 06:58:19;;;;;;;7.57;2.47;;;3.20;99.90;;;;;;5091363;28;20111;-50
2022/01/06 07:00:45;;;;;;;15.30;3.05;;;3.30;99.90;;;;;;5073032;28;20068;-50
2022/01/06 07:03:10;;;;;;;11.30;2.72;;;3.40;99.90;;;;;;5073338;28;20082;-51
2022/01/06 07:05:36;;;;;;;13.45;2.47;;;3.60;99.90;;;;;;5073154;28;20503;-50
2022/01/06 07:08:02;;;;;;;19.13;2.85;;;3.90;99.90;;;;;;5091367;28;20032;-49
2022/01/06 07:10:27;;;;;;;15.27;4.30;;;4.00;99.90;;;;;;5091208;28;20472;-53
2022/01/06 07:12:53;;;;;;;14.25;3.30;;;4.10;99.90;;;;;;5090848;28;20033;-51
2022/01/06 07:15:19;;;;;;;5.93;2.83;;;4.10;99.90;;;;;;5091325;28;20384;-52
2022/01/06 07:17:45;;;;;;;18.95;5.88;;;4.10;99.90;;;;;;5091322;28;20380;-52
2022/01/06 07:20:11;;;;;;;11.85;3.28;;;4.10;99.90;;;;;;5090734;28;20028;-49
2022/01/06 07:22:38;;;;;;;13.18;3.50;;;4.00;99.90;;;;;;5090933;28;20028;-51
2022/01/06 07:25:04;;;;;;;14.88;3.50;;;4.00;99.90;;;;;;5072827;28;20067;-50
2022/01/06 07:27:29;;;;;;;20.67;4.57;;;4.00;99.90;;;;;;5091255;28;20024;-52
2022/01/06 07:29:55;;;;;;;13.00;3.22;;;4.00;99.90;;;;;;5090692;28;20023;-52
2022/01/06 07:32:21;;;;;;;11.55;3.28;;;4.10;99.90;;;;;;5092184;28;20020;-48
2022/01/06 07:34:47;;;;;;;12.07;2.97;;;4.00;99.90;;;;;;5094710;28;20028;-51
2022/01/06 07:37:12;;;;;;;14.50;3.85;;;4.00;99.90;;;;;;5094787;28;20039;-48
2022/01/06 07:39:38;;;;;;;17.63;2.40;;;4.10;99.90;;;;;;5094426;28;20036;-51
2022/01/06 07:42:05;;;;;;;20.90;2.63;;;4.20;99.90;;;;;;5094768;28;20028;-49
2022/01/06 07:44:30;;;;;;;9.82;2.35;;;4.30;99.90;;;;;;5095156;28;20392;-52
2022/01/06 07:46:56;;;;;;;9.93;2.75;;;4.30;99.90;;;;;;5094748;28;20024;-54
2022/01/06 07:49:21;;;;;;;9.48;2.42;;;4.40;99.90;;;;;;5094035;28;20118;-52
2022/01/06 07:51:47;;;;;;;10.35;2.90;;;4.30;99.90;;;;;;5094470;28;20065;-50
2022/01/06 07:54:12;;;;;;;12.48;4.10;;;4.30;99.90;;;;;;5094725;28;20468;-53
2022/01/06 07:56:38;;;;;;;14.82;3.17;;;4.30;99.90;;;;;;5094579;28;20072;-52
2022/01/06 07:59:04;;;;;;;14.00;3.53;;;4.30;99.90;;;;;;5076098;28;20115;-49
2022/01/06 08:01:29;;;;;;;9.68;2.85;;;4.30;99.90;;;;;;5094534;28;20016;-51
2022/01/06 08:03:55;;;;;;;25.30;3.50;;;4.30;99.90;;;;;;5094210;28;20031;-48
2022/01/06 08:06:20;;;;;;;11.23;2.72;;;4.20;99.90;;;;;;5094224;28;20028;-51
2022/01/06 08:08:46;;;;;;;19.33;3.33;;;4.30;99.90;;;;;;5094295;28;20047;-51
2022/01/06 08:11:13;;;;;;;13.07;3.22;;;4.30;99.90;;;;;;5094031;28;20032;-50
2022/01/06 08:13:39;;;;;;;14.43;2.92;;;4.30;99.90;;;;;;5093674;28;20058;-53
2022/01/06 08:16:05;;;;;;;16.05;3.60;;;4.30;99.90;;;;;;5075915;28;20140;-51
2022/01/06 08:18:31;;;;;;;18.38;3.20;;;4.30;99.90;;;;;;5094117;28;20505;-52
2022/01/06 08:20:56;;;;;;;12.35;3.05;;;4.40;99.90;;;;;;5093743;28;20024;-47
2022/01/06 08:23:22;;;;;;;12.98;3.72;;;4.40;99.90;;;;;;5075837;28;20085;-50
2022/01/06 08:25:48;;;;;;;12.98;3.50;;;4.40;99.90;;;;;;5094002;28;20035;-51
2022/01/06 08:28:14;;;;;;;12.05;2.95;;;4.40;99.90;;;;;;5075902;28;20498;-48
2022/01/06 08:30:40;;;;;;;27.35;4.32;;;4.50;99.90;;;;;;5075309;28;20016;-52
2022/01/06 08:33:05;;;;;;;13.07;3.33;;;4.50;99.90;;;;;;5072778;28;20035;-52
2022/01/06 08:35:31;;;;;;;13.48;3.17;;;4.50;99.90;;;;;;5084587;28;20064;-49
2022/01/06 08:37:56;;;;;;;15.00;3.08;;;4.70;99.90;;;;;;5073572;28;20476;-51
2022/01/06 08:40:22;;;;;;;12.45;3.22;;;4.70;99.90;;;;;;5081246;28;20035;-51
2022/01/06 08:42:48;;;;;;;13.68;2.83;;;4.70;99.90;;;;;;5092827;28;20027;-48
2022/01/06 08:45:16;;;;;;;27.98;3.83;;;4.70;99.90;;;;;;5092129;28;20060;-50
2022/01/06 08:47:42;;;;;;;16.55;3.00;;;4.70;99.90;;;;;;5093542;28;20028;-51
2022/01/06 08:50:09;;;;;;;15.93;2.75;;;4.90;99.90;;;;;;5093098;28;20165;-48
2022/01/06 08:52:36;;;;;;;14.25;3.53;;;4.90;99.90;;;;;;5093971;28;20044;-53
2022/01/06 08:55:03;;;;;;;13.57;3.67;;;4.90;99.90;;;;;;5093764;28;20024;-50
2022/01/06 08:57:28;;;;;;;15.98;4.80;;;4.90;99.90;;;;;;5092261;28;20495;-52
2022/01/06 08:59:54;;;;;;;13.90;3.65;;;4.90;99.90;;;;;;5096932;28;20089;-51
2022/01/06 09:02:19;;;;;;;9.88;2.28;;;5.30;99.90;;;;;;5088203;28;20035;-53
2022/01/06 09:04:45;;;;;;;17.77;2.88;;;6.00;99.90;;;;;;5092476;28;20021;-48
2022/01/06 09:07:10;;;;;;;9.45;3.15;;;6.40;99.90;;;;;;5088731;28;20476;-47
2022/01/06 09:09:39;;;;;;;9.30;2.95;;;7.00;99.90;;;;;;5066564;28;20441;-47
2022/01/06 09:12:08;;;;;;;9.93;3.20;;;7.40;99.90;;;;;;5093076;28;20020;-49
2022/01/06 09:14:34;;;;;;;14.05;3.70;;;7.80;99.90;;;;;;5084297;28;20024;-50
2022/01/06 09:17:00;;;;;;;12.23;2.65;;;8.40;99.90;;;;;;5092981;28;20453;-49
2022/01/06 09:19:26;;;;;;;12.25;3.75;;;;;;;;;;5092346;28;20153;-50
2022/01/06 09:21:52;;;;;;;10.48;2.50;;;9.40;99.90;;;;;;5092511;28;20049;-49
2022/01/06 09:24:18;;;;;;;8.27;2.45;;;9.30;99.90;;;;;;5092565;28;20496;-47
2022/01/06 09:26:43;;;;;;;7.45;2.38;;;9.80;99.90;;;;;;5092641;28;20091;-51
2022/01/06 09:29:09;;;;;;;12.70;2.80;;;10.50;99.70;;;;;;5092137;28;20062;-49
2022/01/06 09:31:36;;;;;;;10.65;3.00;;;10.80;98.80;;;;;;5074318;28;20314;-50
2022/01/06 09:34:03;;;;;;;7.93;2.30;;;11.20;98.00;;;;;;5092449;28;20024;-51
2022/01/06 09:36:29;;;;;;;11.70;4.10;;;11.40;98.30;;;;;;5093109;28;20059;-52
2022/01/06 09:38:56;;;;;;;8.43;2.80;;;11.40;98.10;;;;;;5092289;28;20035;-53
2022/01/06 09:41:22;;;;;;;8.10;2.65;;;11.70;97.80;;;;;;5092127;28;20040;-49
2022/01/06 09:43:55;;;;;;;11.40;2.95;;;11.70;98.00;;;;;;5092162;28;20095;-51
2022/01/06 09:46:21;;;;;;;7.38;2.15;;;12.00;97.20;;;;;;5092090;28;20449;-49
2022/01/06 09:48:48;;;;;;;12.48;3.25;;;11.90;96.80;;;;;;5091849;28;20388;-49
2022/01/06 09:51:15;;;;;;;11.43;3.45;;;11.80;96.20;;;;;;5091807;28;20049;-50
2022/01/06 09:53:40;;;;;;;13.45;2.70;;;11.50;96.90;;;;;;5091898;28;20091;-49
2022/01/06 09:56:06;;;;;;;14.60;3.72;;;11.10;97.20;;;;;;5091679;28;20111;-49
2022/01/06 09:58:32;;;;;;;9.85;2.70;;;10.90;97.50;;;;;;5091816;28;20069;-49
2022/01/06 10:00:58;;;;;;;15.02;3.78;;;10.90;97.40;;;;;;5073544;28;20028;-48
2022/01/06 10:03:38;;;;;;;8.75;3.60;;;11.00;97.40;;;;;;5091688;28;20059;-51
2022/01/06 10:06:26;;;;;;;11.70;2.85;;;10.90;96.30;;;;;;5091636;28;20028;-52
2022/01/06 10:08:56;;;;;;;12.50;3.03;;;10.60;97.30;;;;;;5091687;28;20012;-52
2022/01/06 10:11:27;;;;;;;13.65;3.47;;;10.40;97.40;;;;;;5091282;28;20016;-50
2022/01/06 10:14:07;;;;;;;17.85;4.47;;;10.40;97.70;;;;;;5091649;28;20047;-48
2022/01/06 10:16:34;;;;;;;15.25;3.67;;;10.30;97.90;;;;;;5073504;28;20020;-52
2022/01/06 10:19:10;;;;;;;15.30;4.30;;;10.20;98.10;;;;;;5073546;28;20085;-49
2022/01/06 10:21:40;;;;;;;14.88;3.92;;;9.70;98.80;;;;;;5091808;28;20391;-51
2022/01/06 10:24:06;;;;;;;16.25;4.15;;;9.40;98.80;;;;;;5091668;28;20075;-50
2022/01/06 10:26:33;;;;;;;13.57;5.60;;;9.30;98.10;;;;;;5091632;28;20044;-51
2022/01/06 10:28:59;;;;;;;12.20;3.72;;;9.00;97.90;;;;;;5091509;28;20395;-47
2022/01/06 10:31:26;;;;;;;14.65;4.43;;;8.70;98.70;;;;;;5091356;28;20027;-51
2022/01/06 10:33:52;;;;;;;15.02;5.55;;;8.40;99.80;;;;;;5091082;28;20070;-50
2022/01/06 10:36:18;;;;;;;15.65;4.43;;;8.10;99.90;;;;;;5091560;28;20032;-51
2022/01/06 10:38:56;;;;;;;17.25;4.95;;;7.90;99.90;;;;;;5091695;28;20028;-50
2022/01/06 10:41:22;;;;;;;14.40;5.00;;;7.80;99.90;;;;;;5091816;28;20488;-51
2022/01/06 10:43:53;;;;;;;8.10;3.47;;;8.10;99.90;;;;;;5091472;28;20031;-49
2022/01/06 10:46:40;;;;;;;11.80;3.30;;;8.50;99.90;;;;;;5091272;28;20499;-48
2022/01/06 10:49:12;;;;;;;10.48;3.50;;;9.00;99.90;;;;;;5091218;28;20122;-49
2022/01/06 10:51:39;;;;;;;14.70;3.63;;;9.40;99.90;;;;;;5073276;28;20523;-47
2022/01/06 10:54:10;;;;;;;13.43;3.58;;;9.80;99.70;;;;;;5091279;28;20032;-49
2022/01/06 10:56:36;;;;;;;14.98;3.60;;;10.00;99.20;;;;;;5091330;28;20024;-48
2022/01/06 10:59:02;;;;;;;15.30;4.72;;;10.20;98.10;;;;;;5072993;28;20035;-50
2022/01/06 11:01:32;;;;;;;14.10;2.97;;;10.10;97.00;;;;;;5091078;28;20027;-49
2022/01/06 11:03:57;;;;;;;11.90;3.38;;;9.90;97.10;;;;;;5091136;28;20027;-49
2022/01/06 11:06:23;;;;;;;17.40;3.75;;;9.90;97.40;;;;;;5090559;28;20483;-50
2022/01/06 11:08:51;;;;;;;13.55;3.13;;;9.80;97.30;;;;;;5058053;28;20036;-50
2022/01/06 11:11:30;;;;;;;18.75;4.05;;;9.50;97.20;;;;;;5075680;28;20025;-52
2022/01/06 11:13:56;;;;;;;14.43;3.40;;;9.20;97.80;;;;;;5080037;28;20140;-51
2022/01/06 11:16:21;;;;;;;12.95;3.42;;;9.00;98.80;;;;;;5082341;28;20122;-49
2022/01/06 11:18:54;;;;;;;13.40;3.55;;;8.90;99.20;;;;;;5075958;28;20025;-49
2022/01/06 11:21:40;;;;;;;12.40;3.15;;;8.80;99.50;;;;;;5061559;28;20042;-53
2022/01/06 11:24:23;;;;;;;14.20;3.83;;;8.80;99.30;;;;;;5072122;28;20032;-54
2022/01/06 11:27:31;;;;;;;9.02;3.55;;;8.60;99.90;;;;;;5079678;28;20024;-50
2022/01/06 11:30:14;;;;;;;12.55;3.22;;;8.40;99.90;;;;;;5028986;28;20035;-51
2022/01/06 11:32:42;;;;;;;14.82;4.80;;;8.20;99.90;;;;;;5086548;28;20059;-50
2022/01/06 11:35:15;;;;;;;14.63;3.63;;;8.20;99.90;;;;;;5087736;28;20074;-49
2022/01/06 11:37:44;;;;;;;11.55;3.03;;;8.10;99.90;;;;;;5094430;28;20020;-50
2022/01/06 11:40:12;;;;;;;10.25;3.38;;;8.10;99.90;;;;;;5080318;28;20484;-55
2022/01/06 11:42:38;;;;;;;13.63;4.82;;;8.10;99.90;;;;;;5092233;28;20043;-51
2022/01/06 11:45:06;;;;;;;19.75;3.53;;;8.10;99.90;;;;;;5092643;28;20028;-48
2022/01/06 11:47:39;;;;;;;9.25;3.13;;;8.20;99.90;;;;;;5078180;28;20032;-53
2022/01/06 11:50:08;;;;;;;14.50;3.90;;;8.10;99.90;;;;;;5084969;28;20436;-51
2022/01/06 11:52:33;;;;;;;16.25;4.30;;;7.90;99.90;;;;;;5074175;28;20023;-52
2022/01/06 11:55:02;;;;;;;10.82;3.60;;;8.00;99.90;;;;;;5086354;28;20028;-49
2022/01/06 11:57:35;;;;;;;8.95;4.15;;;8.00;99.90;;;;;;5089552;28;20020;-49
2022/01/06 12:00:22;;;;;;;12.70;3.85;;;7.90;99.90;;;;;;5090443;28;20032;-48
2022/01/06 12:03:05;;;;;;;8.98;3.17;;;7.80;99.90;;;;;;5091028;28;20032;-52
2022/01/06 12:06:00;;;;;;;13.45;3.85;;;7.70;99.90;;;;;;5070172;28;20039;-50
2022/01/06 12:08:39;;;;;;;10.80;3.58;;;7.70;99.90;;;;;;5063405;28;20044;-48
2022/01/06 12:11:05;;;;;;;13.00;3.20;;;7.80;99.90;;;;;;5083176;28;20466;-51
2022/01/06 12:13:41;;;;;;;7.82;3.25;;;7.60;99.90;;;;;;5070721;28;20059;-51
2022/01/06 12:16:07;;;;;;;16.02;3.58;;;7.60;99.90;;;;;;5067621;28;20024;-51
2022/01/06 12:18:35;;;;;;;13.75;3.67;;;7.60;99.90;;;;;;5076056;28;20089;-51
2022/01/06 12:21:01;;;;;;;14.88;3.83;;;7.60;99.90;;;;;;5090360;28;20056;-53
2022/01/06 12:23:27;;;;;;;12.80;2.97;;;7.50;99.90;;;;;;5089613;28;20070;-49
2022/01/06 12:25:58;;;;;;;9.75;4.93;;;7.40;99.90;;;;;;5090504;28;20044;-52
2022/01/06 12:28:24;;;;;;;17.15;3.20;;;7.40;99.90;;;;;;5091503;28;20073;-51
2022/01/06 12:30:50;;;;;;;12.52;3.13;;;7.40;99.90;;;;;;5073750;28;20024;-51
2022/01/06 12:33:20;;;;;;;16.25;3.88;;;7.30;99.90;;;;;;5073393;28;20078;-51
2022/01/06 12:35:49;;;;;;;10.80;3.45;;;7.20;99.90;;;;;;5091139;28;20028;-50
2022/01/06 12:38:25;;;;;;;9.02;3.13;;;7.20;99.90;;;;;;5090908;28;20031;-49
2022/01/06 12:40:50;;;;;;;12.15;3.30;;;7.10;99.90;;;;;;5090355;28;20024;-50
2022/01/06 12:43:22;;;;;;;15.63;3.22;;;7.10;99.90;;;;;;5067333;28;20040;-46
2022/01/06 12:45:59;;;;;;;14.45;3.50;;;7.10;99.90;;;;;;5069640;28;20112;-50
2022/01/06 12:48:36;;;;;;;12.90;3.13;;;7.10;99.90;;;;;;5089594;28;20071;-50
2022/01/06 12:51:01;;;;;;;14.40;3.20;;;7.20;99.90;;;;;;5089894;28;20407;-51
2022/01/06 12:53:37;;;;;;;15.60;2.97;;;7.20;99.90;;;;;;5090526;28;20024;-51
2022/01/06 12:56:03;;;;;;;14.60;3.63;;;7.20;99.90;;;;;;5090061;28;20070;-49
2022/01/06 12:58:30;;;;;;;13.55;3.55;;;7.20;99.90;;;;;;5089862;28;20032;-50
2022/01/06 13:00:58;;;;;;;14.70;4.18;;;7.10;99.90;;;;;;5088625;28;20039;-53